Time;durP1;ratioP1;P1;durP2;ratioP2;P2;SDS_P1;SDS_P2;PMS_P1;PMS_P2;Temp;Humidity;BMP_temperature;BMP_pressure;BME280_temperature;BME280_humidity;BME280_pressure;Samples;Min_cycle;Max_cycle;Signal;HPM_P1;HPM_P2
2021/06/27 00:01:24;;;;;;;6.28;4.22;;;21.30;69.20;;;;;;5110419;28;19924;-44
2021/06/27 00:03:51;;;;;;;4.88;4.03;;;21.20;69.30;;;;;;5111813;28;20040;-41
2021/06/27 00:06:18;;;;;;;5.28;4.57;;;21.20;69.30;;;;;;5111120;28;20039;-43
2021/06/27 00:08:44;;;;;;;4.75;4.25;;;21.30;69.40;;;;;;5114039;28;20043;-42
2021/06/27 00:11:12;;;;;;;6.47;4.43;;;21.20;69.30;;;;;;5111751;28;20436;-43
2021/06/27 00:13:43;;;;;;;5.75;4.43;;;21.30;69.40;;;;;;5111120;28;20491;-42
2021/06/27 00:16:09;;;;;;;5.32;4.60;;;21.20;69.40;;;;;;5112576;28;20047;-43
2021/06/27 00:18:36;;;;;;;4.68;4.18;;;21.20;69.40;;;;;;5113434;28;20044;-43
2021/06/27 00:21:04;;;;;;;5.57;4.72;;;21.20;69.40;;;;;;5111500;28;20039;-42
2021/06/27 00:23:33;;;;;;;5.75;4.32;;;21.20;69.40;;;;;;5113907;28;20044;-43
2021/06/27 00:26:00;;;;;;;5.25;4.18;;;21.30;69.40;;;;;;5110004;28;20051;-42
2021/06/27 00:28:27;;;;;;;4.78;4.22;;;21.20;69.40;;;;;;5113825;28;20039;-47
2021/06/27 00:30:53;;;;;;;4.95;4.07;;;21.30;69.50;;;;;;5112456;28;20065;-44
2021/06/27 00:33:23;;;;;;;5.88;4.70;;;21.20;69.40;;;;;;5113463;28;20140;-47
2021/06/27 00:35:50;;;;;;;5.35;4.70;;;21.20;69.40;;;;;;5112471;28;20508;-45
2021/06/27 00:38:17;;;;;;;5.30;4.00;;;21.20;69.40;;;;;;5113616;28;20046;-42
2021/06/27 00:40:43;;;;;;;5.40;4.75;;;21.20;69.40;;;;;;5111306;28;20480;-45
2021/06/27 00:43:10;;;;;;;5.22;4.18;;;21.30;69.40;;;;;;5113221;28;20440;-44
2021/06/27 00:45:36;;;;;;;4.72;4.03;;;21.30;69.40;;;;;;5112762;28;20043;-46
2021/06/27 00:48:03;;;;;;;4.85;4.22;;;21.30;69.40;;;;;;5113603;28;20044;-44
2021/06/27 00:50:34;;;;;;;5.57;4.25;;;21.20;69.40;;;;;;5111832;28;20040;-46
2021/06/27 00:53:00;;;;;;;5.63;4.20;;;21.30;69.50;;;;;;5110527;28;20437;-48
2021/06/27 00:55:26;;;;;;;4.75;4.25;;;21.20;69.40;;;;;;5112323;28;20425;-43
2021/06/27 00:57:54;;;;;;;4.97;4.30;;;21.20;69.40;;;;;;5112838;28;20132;-46
2021/06/27 01:00:28;;;;;;;5.28;4.38;;;21.30;69.40;;;;;;5110437;28;20487;-42
2021/06/27 01:02:55;;;;;;;4.45;3.78;;;21.20;69.40;;;;;;5112002;28;20036;-42
2021/06/27 01:05:28;;;;;;;5.22;4.22;;;21.20;69.40;;;;;;5112533;28;20209;-47
2021/06/27 01:07:55;;;;;;;5.30;4.07;;;21.20;69.40;;;;;;5111362;28;20035;-44
2021/06/27 01:10:22;;;;;;;4.63;4.22;;;21.20;69.40;;;;;;5112759;28;20039;-45
2021/06/27 01:12:48;;;;;;;4.85;4.00;;;21.20;69.40;;;;;;5112148;28;20059;-43
2021/06/27 01:15:15;;;;;;;5.20;4.13;;;21.20;69.40;;;;;;5112255;28;20471;-45
2021/06/27 01:17:47;;;;;;;4.85;4.22;;;21.20;69.40;;;;;;5112776;28;20116;-48
2021/06/27 01:20:18;;;;;;;4.43;3.92;;;21.20;69.40;;;;;;5109660;28;20075;-45
2021/06/27 01:22:44;;;;;;;5.25;4.35;;;21.20;69.40;;;;;;5110047;28;20118;-44
2021/06/27 01:25:14;;;;;;;4.93;4.32;;;21.20;69.40;;;;;;5110754;28;20126;-45
2021/06/27 01:27:40;;;;;;;4.18;3.72;;;21.20;69.40;;;;;;5109928;28;20529;-42
2021/06/27 01:30:10;;;;;;;4.18;3.78;;;21.20;69.40;;;;;;5110257;28;20040;-42
2021/06/27 01:32:42;;;;;;;5.05;4.15;;;21.20;69.40;;;;;;5112274;28;20144;-46
2021/06/27 01:35:10;;;;;;;5.50;4.18;;;21.20;69.40;;;;;;5111255;28;20047;-44
2021/06/27 01:37:36;;;;;;;4.40;3.83;;;21.20;69.40;;;;;;5111672;28;20337;-44
2021/06/27 01:40:04;;;;;;;5.25;4.50;;;21.20;69.40;;;;;;5109749;28;20043;-46
2021/06/27 01:42:31;;;;;;;4.75;3.83;;;21.20;69.40;;;;;;5111005;28;20078;-43
2021/06/27 01:44:58;;;;;;;3.95;3.55;;;21.20;69.40;;;;;;5110977;28;20472;-42
2021/06/27 01:47:28;;;;;;;5.45;4.07;;;21.20;69.40;;;;;;5112484;28;20039;-43
2021/06/27 01:49:54;;;;;;;4.72;4.22;;;21.20;69.40;;;;;;5111249;28;20123;-43
2021/06/27 01:52:20;;;;;;;4.95;4.18;;;21.20;69.40;;;;;;5111987;28;20055;-45
2021/06/27 01:54:46;;;;;;;4.93;3.92;;;21.20;69.40;;;;;;5111416;28;20036;-44
2021/06/27 01:57:20;;;;;;;5.20;4.13;;;21.20;69.40;;;;;;5112224;28;20475;-46
2021/06/27 01:59:48;;;;;;;4.00;3.53;;;21.10;69.40;;;;;;5109643;28;20096;-40
2021/06/27 02:02:17;;;;;;;5.22;3.85;;;21.20;69.40;;;;;;5111548;28;20055;-42
2021/06/27 02:04:44;;;;;;;4.57;4.05;;;21.10;69.40;;;;;;5112193;28;20134;-43
2021/06/27 02:07:10;;;;;;;4.45;3.80;;;21.20;69.40;;;;;;5109554;28;20040;-44
2021/06/27 02:09:36;;;;;;;4.85;4.25;;;21.20;69.40;;;;;;5111687;28;20337;-44
2021/06/27 02:12:02;;;;;;;4.30;3.83;;;21.20;69.40;;;;;;5109670;28;20126;-38
2021/06/27 02:14:28;;;;;;;4.68;3.85;;;21.10;69.40;;;;;;5109415;28;20557;-47
2021/06/27 02:16:54;;;;;;;4.30;3.90;;;21.20;69.40;;;;;;5111859;28;20039;-45
2021/06/27 02:19:20;;;;;;;4.60;4.15;;;21.10;69.40;;;;;;5110365;28;20551;-42
2021/06/27 02:21:46;;;;;;;4.05;3.65;;;21.20;69.40;;;;;;5111615;28;20135;-42
2021/06/27 02:24:12;;;;;;;4.72;3.78;;;21.10;69.40;;;;;;5108528;28;20340;-47
2021/06/27 02:26:37;;;;;;;4.68;3.78;;;21.20;69.40;;;;;;5111744;28;20071;-47
2021/06/27 02:29:04;;;;;;;4.03;3.53;;;21.20;69.40;;;;;;5091825;28;20051;-44
2021/06/27 02:31:31;;;;;;;4.65;4.15;;;21.10;69.40;;;;;;5111756;28;20475;-44
2021/06/27 02:33:59;;;;;;;4.53;3.97;;;21.20;69.40;;;;;;5113640;28;20071;-42
2021/06/27 02:36:25;;;;;;;4.10;3.55;;;21.10;69.40;;;;;;5115571;28;20109;-48
2021/06/27 02:38:52;;;;;;;4.30;3.90;;;21.10;69.40;;;;;;5113187;28;20156;-42
2021/06/27 02:41:19;;;;;;;5.40;3.92;;;21.10;69.40;;;;;;5115651;28;20050;-47
2021/06/27 02:43:46;;;;;;;5.13;4.63;;;21.10;69.40;;;;;;5112792;28;20047;-46
2021/06/27 02:46:12;;;;;;;3.95;3.55;;;21.20;69.50;;;;;;5115373;28;20360;-45
2021/06/27 02:48:58;;;;;;;4.45;3.70;;;21.20;69.50;;;;;;5098311;28;20181;-42
2021/06/27 02:51:24;;;;;;;5.13;4.07;;;21.10;69.50;;;;;;5113021;28;20461;-42
2021/06/27 02:53:50;;;;;;;4.57;3.88;;;21.10;69.40;;;;;;5115072;28;20046;-45
2021/06/27 02:56:17;;;;;;;4.35;3.83;;;21.10;69.50;;;;;;5113422;28;20039;-41
2021/06/27 02:58:48;;;;;;;4.05;3.65;;;21.10;69.40;;;;;;5114603;28;20486;-43
2021/06/27 03:01:16;;;;;;;4.78;3.90;;;21.10;69.40;;;;;;5113311;28;20069;-40
2021/06/27 03:03:44;;;;;;;4.55;3.63;;;21.10;69.50;;;;;;5111819;28;20054;-44
2021/06/27 03:06:12;;;;;;;4.00;3.50;;;21.10;69.40;;;;;;5113810;28;20498;-41
2021/06/27 03:08:40;;;;;;;3.90;3.47;;;21.10;69.50;;;;;;5115450;28;20043;-46
2021/06/27 03:11:06;;;;;;;4.30;3.90;;;21.10;69.40;;;;;;5115048;28;20492;-43
2021/06/27 03:13:33;;;;;;;3.47;3.17;;;21.10;69.40;;;;;;5112991;28;20067;-42
2021/06/27 03:16:00;;;;;;;3.70;3.28;;;21.10;69.50;;;;;;5115201;28;20051;-42
2021/06/27 03:18:27;;;;;;;3.80;3.40;;;21.10;69.50;;;;;;5114925;28;20039;-42
2021/06/27 03:20:53;;;;;;;4.70;3.90;;;21.10;69.50;;;;;;5114992;28;20039;-44
2021/06/27 03:23:19;;;;;;;4.30;3.83;;;21.10;69.50;;;;;;5115115;28;20424;-39
2021/06/27 03:25:45;;;;;;;3.58;3.25;;;21.10;69.50;;;;;;5112426;28;20075;-43
2021/06/27 03:28:11;;;;;;;5.82;3.33;;;21.10;70.10;;;;;;5114400;28;20048;-40
2021/06/27 03:30:37;;;;;;;4.20;3.80;;;21.10;69.50;;;;;;5114503;28;20039;-42
2021/06/27 03:33:03;;;;;;;3.58;3.20;;;21.10;69.40;;;;;;5114952;28;20040;-42
2021/06/27 03:35:29;;;;;;;4.25;3.78;;;21.10;69.50;;;;;;5112683;28;20100;-39
2021/06/27 03:38:11;;;;;;;3.78;3.22;;;21.00;69.40;;;;;;5114616;28;20075;-42
2021/06/27 03:40:39;;;;;;;3.97;3.40;;;21.10;69.40;;;;;;5113522;28;20040;-40
2021/06/27 03:43:05;;;;;;;4.55;3.35;;;21.00;69.30;;;;;;5114094;28;20085;-41
2021/06/27 03:45:32;;;;;;;3.90;3.47;;;21.10;69.40;;;;;;5112155;28;20429;-43
2021/06/27 03:47:58;;;;;;;3.58;3.17;;;21.10;69.40;;;;;;5114206;28;20051;-40
2021/06/27 03:50:25;;;;;;;4.43;3.40;;;21.10;69.50;;;;;;5114140;28;20036;-46
2021/06/27 03:52:51;;;;;;;3.90;3.30;;;21.10;69.40;;;;;;5114431;28;20529;-42
2021/06/27 03:55:19;;;;;;;3.90;3.17;;;21.10;69.40;;;;;;5112444;28;20040;-44
2021/06/27 03:57:47;;;;;;;3.72;3.35;;;21.10;69.40;;;;;;5113667;28;20376;-41
2021/06/27 04:00:15;;;;;;;4.00;3.60;;;21.10;69.40;;;;;;5114031;28;20046;-42
2021/06/27 04:02:41;;;;;;;3.67;3.25;;;21.10;69.40;;;;;;5113598;28;20054;-41
2021/06/27 04:05:09;;;;;;;3.97;3.28;;;21.10;69.40;;;;;;5111918;28;20092;-40
2021/06/27 04:07:35;;;;;;;3.30;2.97;;;21.10;69.50;;;;;;5113146;28;20048;-43
2021/06/27 04:10:02;;;;;;;3.85;3.17;;;21.10;69.50;;;;;;5110882;28;20118;-45
2021/06/27 04:12:28;;;;;;;3.70;3.28;;;21.10;69.50;;;;;;5111224;28;20500;-45
2021/06/27 04:14:54;;;;;;;3.80;3.28;;;21.00;69.40;;;;;;5113309;28;20071;-41
2021/06/27 04:17:22;;;;;;;4.30;3.63;;;21.00;69.40;;;;;;5108364;28;20070;-39
2021/06/27 04:19:48;;;;;;;3.78;3.35;;;21.00;69.40;;;;;;5113663;28;20440;-46
2021/06/27 04:22:14;;;;;;;4.43;2.90;;;21.10;69.50;;;;;;5113563;28;20118;-41
2021/06/27 04:24:40;;;;;;;4.80;3.30;;;21.00;69.40;;;;;;5111895;28;20219;-42
2021/06/27 04:27:07;;;;;;;3.78;3.28;;;21.00;69.40;;;;;;5113733;28;20502;-43
2021/06/27 04:29:33;;;;;;;3.47;3.17;;;21.00;69.30;;;;;;5110342;28;20114;-43
2021/06/27 04:31:59;;;;;;;3.88;3.30;;;21.00;69.40;;;;;;5113544;28;20069;-46
2021/06/27 04:34:25;;;;;;;3.90;3.50;;;21.00;69.40;;;;;;5112297;28;20090;-44
2021/06/27 04:36:51;;;;;;;4.03;3.63;;;21.00;69.40;;;;;;5113309;28;20426;-43
2021/06/27 04:39:17;;;;;;;4.70;3.70;;;21.00;69.40;;;;;;5110599;28;20150;-44
2021/06/27 04:41:44;;;;;;;3.35;3.05;;;21.00;69.40;;;;;;5113437;28;20067;-44
2021/06/27 04:44:11;;;;;;;4.97;3.33;;;21.00;69.40;;;;;;5111859;28;20142;-45
2021/06/27 04:46:38;;;;;;;4.22;3.65;;;21.00;69.40;;;;;;5112616;28;20039;-43
2021/06/27 04:49:06;;;;;;;3.78;3.20;;;21.00;69.40;;;;;;5110514;28;20039;-45
2021/06/27 04:51:31;;;;;;;3.33;3.03;;;21.00;69.40;;;;;;5112939;28;20043;-42
2021/06/27 04:53:57;;;;;;;3.53;3.17;;;21.00;69.50;;;;;;5111328;28;20046;-42
2021/06/27 04:56:23;;;;;;;4.28;3.80;;;21.00;69.40;;;;;;5111892;28;20122;-44
2021/06/27 04:58:49;;;;;;;3.80;3.40;;;21.00;69.40;;;;;;5112256;28;20044;-43
2021/06/27 05:01:15;;;;;;;3.50;2.97;;;21.00;69.40;;;;;;5112231;28;20128;-41
2021/06/27 05:03:40;;;;;;;3.30;2.97;;;21.00;69.40;;;;;;5109654;28;20039;-37
2021/06/27 05:06:06;;;;;;;4.22;3.10;;;20.90;69.40;;;;;;5111751;28;20125;-42
2021/06/27 05:08:32;;;;;;;3.63;3.28;;;21.00;69.40;;;;;;5112729;28;20039;-42
2021/06/27 05:10:58;;;;;;;4.72;3.45;;;21.00;69.40;;;;;;5110885;28;21088;-38
2021/06/27 05:13:25;;;;;;;5.03;3.45;;;21.00;69.40;;;;;;5110448;28;20052;-44
2021/06/27 05:15:51;;;;;;;3.65;2.97;;;21.00;69.50;;;;;;5100727;28;20083;-41
2021/06/27 05:18:17;;;;;;;3.42;2.90;;;21.00;69.50;;;;;;5074694;28;20060;-42
2021/06/27 05:20:43;;;;;;;3.50;3.20;;;21.00;69.40;;;;;;5092424;28;20537;-43
2021/06/27 05:23:08;;;;;;;3.78;3.22;;;21.00;69.40;;;;;;5092801;28;20082;-43
2021/06/27 05:25:34;;;;;;;4.13;3.40;;;21.00;69.40;;;;;;5093396;28;20074;-43
2021/06/27 05:28:00;;;;;;;3.65;3.13;;;21.00;69.40;;;;;;5101567;28;20050;-40
2021/06/27 05:30:27;;;;;;;3.83;3.15;;;21.00;69.40;;;;;;5113185;28;20055;-41
2021/06/27 05:32:53;;;;;;;4.35;3.28;;;21.00;69.40;;;;;;5113010;28;20040;-45
2021/06/27 05:35:19;;;;;;;3.10;2.80;;;21.00;69.40;;;;;;5113302;28;20047;-41
2021/06/27 05:37:45;;;;;;;3.72;3.20;;;21.00;69.40;;;;;;5111164;28;20044;-42
2021/06/27 05:40:12;;;;;;;3.72;3.30;;;21.00;69.50;;;;;;5112698;28;20043;-41
2021/06/27 05:42:38;;;;;;;3.90;3.50;;;20.90;69.40;;;;;;5112772;28;20529;-45
2021/06/27 05:45:05;;;;;;;4.13;3.20;;;21.00;69.50;;;;;;5112349;28;20047;-43
2021/06/27 05:47:32;;;;;;;3.67;3.15;;;21.00;69.40;;;;;;5110624;28;20058;-42
2021/06/27 05:49:58;;;;;;;4.78;3.00;;;21.00;69.50;;;;;;5112095;28;20048;-42
2021/06/27 05:52:23;;;;;;;3.53;3.22;;;21.00;69.50;;;;;;5112494;28;20040;-44
2021/06/27 05:54:49;;;;;;;3.97;3.22;;;20.90;69.40;;;;;;5112667;28;20067;-45
2021/06/27 05:57:15;;;;;;;3.83;3.22;;;21.00;69.40;;;;;;5109570;28;20043;-42
2021/06/27 05:59:40;;;;;;;3.88;2.97;;;20.90;69.40;;;;;;5092245;28;20047;-42
2021/06/27 06:02:07;;;;;;;3.80;3.38;;;21.00;69.40;;;;;;5091792;28;20119;-45
2021/06/27 06:04:33;;;;;;;3.90;2.97;;;21.00;69.50;;;;;;5091538;28;20040;-39
2021/06/27 06:06:59;;;;;;;4.07;3.20;;;21.00;69.50;;;;;;5092234;28;20048;-47
2021/06/27 06:09:24;;;;;;;3.47;3.08;;;21.00;69.50;;;;;;5097236;28;20048;-44
2021/06/27 06:11:50;;;;;;;3.95;3.10;;;21.10;69.50;;;;;;5096074;28;20080;-45
2021/06/27 06:14:16;;;;;;;3.53;3.08;;;21.10;69.50;;;;;;5096198;28;20082;-46
2021/06/27 06:16:45;;;;;;;3.42;3.13;;;21.00;69.50;;;;;;5096129;28;20433;-46
2021/06/27 06:19:11;;;;;;;5.15;2.95;;;21.00;69.50;;;;;;5096822;28;20387;-45
2021/06/27 06:21:37;;;;;;;3.47;3.15;;;21.00;69.50;;;;;;5095944;28;20047;-45
2021/06/27 06:24:04;;;;;;;3.30;2.83;;;21.00;69.50;;;;;;5096107;28;20401;-47
2021/06/27 06:26:29;;;;;;;3.40;2.92;;;21.00;69.50;;;;;;5095938;28;20051;-41
2021/06/27 06:28:55;;;;;;;4.45;3.50;;;21.00;69.50;;;;;;5097088;28;20044;-42
2021/06/27 06:31:21;;;;;;;4.28;3.42;;;21.00;69.50;;;;;;5096201;28;20052;-45
2021/06/27 06:33:46;;;;;;;3.42;2.88;;;21.00;69.50;;;;;;5112161;28;20039;-43
2021/06/27 06:36:12;;;;;;;4.10;3.70;;;21.00;69.50;;;;;;5115406;28;20059;-41
2021/06/27 06:38:38;;;;;;;3.55;3.25;;;21.00;69.50;;;;;;5115848;28;20044;-43
2021/06/27 06:41:03;;;;;;;3.80;3.33;;;21.00;69.50;;;;;;5114816;28;20107;-40
2021/06/27 06:43:29;;;;;;;4.50;3.33;;;21.00;69.50;;;;;;5115508;28;20067;-48
2021/06/27 06:45:55;;;;;;;3.58;3.13;;;21.00;69.50;;;;;;5115224;28;20051;-44
2021/06/27 06:48:22;;;;;;;3.45;3.13;;;21.00;69.50;;;;;;5115407;28;20456;-38
2021/06/27 06:50:47;;;;;;;4.32;3.38;;;21.00;69.60;;;;;;5114025;28;20047;-43
2021/06/27 06:53:13;;;;;;;3.40;3.10;;;21.10;69.60;;;;;;5115329;28;20063;-42
2021/06/27 06:55:39;;;;;;;3.05;2.78;;;21.10;69.60;;;;;;5114647;28;20773;-44
2021/06/27 06:58:05;;;;;;;3.20;2.65;;;21.00;69.60;;;;;;5115085;28;20043;-44
2021/06/27 07:00:31;;;;;;;3.60;3.20;;;21.00;69.60;;;;;;5115451;28;20055;-46
2021/06/27 07:02:57;;;;;;;4.15;3.40;;;21.10;69.60;;;;;;5115083;28;20130;-46
2021/06/27 07:05:22;;;;;;;3.95;2.85;;;21.10;69.60;;;;;;5114865;28;20107;-39
2021/06/27 07:07:48;;;;;;;4.00;3.60;;;21.10;69.60;;;;;;5114359;28;20074;-47
2021/06/27 07:10:14;;;;;;;3.95;3.40;;;21.00;69.60;;;;;;5115193;28;20039;-41
2021/06/27 07:12:41;;;;;;;4.38;3.40;;;21.00;69.60;;;;;;5115186;28;20084;-43
2021/06/27 07:15:07;;;;;;;4.20;3.53;;;21.00;69.50;;;;;;5114735;28;20039;-40
2021/06/27 07:17:33;;;;;;;4.40;3.50;;;21.10;69.60;;;;;;5113050;28;20047;-40
2021/06/27 07:19:59;;;;;;;4.70;3.72;;;21.10;69.60;;;;;;5113951;28;20058;-42
2021/06/27 07:22:25;;;;;;;5.22;4.68;;;21.10;69.60;;;;;;5114429;28;20058;-42
2021/06/27 07:24:50;;;;;;;3.80;3.17;;;21.10;69.60;;;;;;5114665;28;20051;-44
2021/06/27 07:27:16;;;;;;;3.63;3.28;;;21.10;69.60;;;;;;5114351;28;20404;-42
2021/06/27 07:29:42;;;;;;;3.83;3.42;;;21.10;69.60;;;;;;5113010;28;20055;-44
2021/06/27 07:32:08;;;;;;;3.88;3.47;;;21.10;69.60;;;;;;5112707;28;20047;-40
2021/06/27 07:34:33;;;;;;;3.92;3.53;;;21.10;69.60;;;;;;5114061;28;20066;-42
2021/06/27 07:37:00;;;;;;;3.92;3.22;;;21.10;69.60;;;;;;5114502;28;20505;-44
2021/06/27 07:39:25;;;;;;;4.25;3.40;;;21.10;69.60;;;;;;5114618;28;20115;-44
2021/06/27 07:41:51;;;;;;;4.18;3.40;;;21.10;69.60;;;;;;5113026;28;20556;-45
2021/06/27 07:44:17;;;;;;;3.95;3.20;;;21.10;69.60;;;;;;5113443;28;20040;-46
2021/06/27 07:46:42;;;;;;;3.67;3.10;;;21.20;69.60;;;;;;5114434;28;20549;-47
2021/06/27 07:49:09;;;;;;;4.53;3.28;;;21.10;69.60;;;;;;5114766;28;20063;-43
2021/06/27 07:51:34;;;;;;;3.97;3.38;;;21.10;70.20;;;;;;5114388;28;20043;-47
2021/06/27 07:54:00;;;;;;;5.45;3.85;;;21.10;69.50;;;;;;5114056;28;20040;-45
2021/06/27 07:56:26;;;;;;;3.80;3.42;;;21.20;69.60;;;;;;5113763;28;20115;-49
2021/06/27 07:58:51;;;;;;;3.75;3.13;;;21.20;69.60;;;;;;5114518;28;20479;-44
2021/06/27 08:01:17;;;;;;;3.58;3.28;;;21.10;69.50;;;;;;5113654;28;20047;-41
2021/06/27 08:03:43;;;;;;;4.03;3.28;;;21.20;69.60;;;;;;5113938;28;20051;-41
2021/06/27 08:06:08;;;;;;;3.63;3.00;;;21.20;69.60;;;;;;5105733;28;20048;-46
2021/06/27 08:08:34;;;;;;;3.83;3.30;;;21.20;69.60;;;;;;5093766;28;20048;-45
2021/06/27 08:11:00;;;;;;;3.92;3.50;;;21.20;69.50;;;;;;5094141;28;20068;-46
2021/06/27 08:13:26;;;;;;;3.65;3.22;;;21.20;69.50;;;;;;5093827;28;20052;-40
2021/06/27 08:15:51;;;;;;;3.55;3.00;;;21.20;69.50;;;;;;5094940;28;20051;-46
2021/06/27 08:18:17;;;;;;;4.30;3.35;;;21.20;69.50;;;;;;5094018;28;20044;-46
2021/06/27 08:20:43;;;;;;;5.38;3.40;;;21.30;69.60;;;;;;5093769;28;20055;-47
2021/06/27 08:23:09;;;;;;;4.32;3.25;;;21.30;69.50;;;;;;5093894;28;20048;-45
2021/06/27 08:25:35;;;;;;;4.78;3.42;;;21.20;69.40;;;;;;5095474;28;20055;-43
2021/06/27 08:28:01;;;;;;;3.63;3.00;;;21.30;69.50;;;;;;5097647;28;20071;-45
2021/06/27 08:30:27;;;;;;;4.10;3.13;;;21.30;69.40;;;;;;5093353;28;20044;-49
2021/06/27 08:32:53;;;;;;;3.58;3.00;;;21.30;69.40;;;;;;5092832;28;20063;-44
2021/06/27 08:35:21;;;;;;;3.45;2.90;;;21.30;69.40;;;;;;5098631;28;20060;-43
2021/06/27 08:37:48;;;;;;;3.13;2.80;;;21.30;69.30;;;;;;5110784;28;20043;-44
2021/06/27 08:40:16;;;;;;;3.80;3.08;;;21.40;69.30;;;;;;5111754;28;20047;-45
2021/06/27 08:42:42;;;;;;;3.53;2.90;;;21.30;69.30;;;;;;5113529;28;20054;-47
2021/06/27 08:45:10;;;;;;;3.13;2.83;;;21.30;69.20;;;;;;5112358;28;20083;-48
2021/06/27 08:47:37;;;;;;;3.45;2.90;;;21.30;69.20;;;;;;5112547;28;20043;-45
2021/06/27 08:50:08;;;;;;;4.15;3.20;;;21.40;69.20;;;;;;5111318;28;20054;-46
2021/06/27 08:52:34;;;;;;;3.63;2.55;;;21.40;69.10;;;;;;5110574;28;20040;-44
2021/06/27 08:55:00;;;;;;;2.90;2.47;;;21.40;69.10;;;;;;5109882;28;20043;-46
2021/06/27 08:57:26;;;;;;;2.78;2.55;;;21.40;69.70;;;;;;5112377;28;20089;-47
2021/06/27 08:59:53;;;;;;;3.50;2.42;;;21.50;69.00;;;;;;5106131;28;20047;-46
2021/06/27 09:02:20;;;;;;;3.50;3.17;;;21.40;68.90;;;;;;5111641;28;20507;-46
2021/06/27 09:04:46;;;;;;;3.50;2.88;;;21.40;68.90;;;;;;5112845;28;20085;-43
2021/06/27 09:07:40;;;;;;;3.08;2.40;;;21.50;68.90;;;;;;5110169;28;20047;-44
2021/06/27 09:10:15;;;;;;;2.65;2.30;;;21.50;68.80;;;;;;5109388;28;20050;-46
2021/06/27 09:12:45;;;;;;;3.25;2.58;;;21.50;68.80;;;;;;5109953;28;20124;-42
2021/06/27 09:15:12;;;;;;;2.67;2.40;;;21.50;69.40;;;;;;5111017;28;20039;-43
2021/06/27 09:17:42;;;;;;;3.20;2.67;;;21.50;68.70;;;;;;5111737;28;20036;-44
2021/06/27 09:20:09;;;;;;;2.88;2.58;;;21.50;68.60;;;;;;5110678;28;20476;-45
2021/06/27 09:22:41;;;;;;;2.55;2.35;;;21.50;68.60;;;;;;5097258;28;20067;-48
2021/06/27 09:25:23;;;;;;;3.33;2.58;;;21.60;68.60;;;;;;5104099;28;20468;-48
2021/06/27 09:28:16;;;;;;;2.45;2.17;;;21.60;68.50;;;;;;5111842;28;20066;-48
2021/06/27 09:30:55;;;;;;;2.60;2.20;;;21.60;68.50;;;;;;5105351;28;20500;-49
2021/06/27 09:33:30;;;;;;;2.40;2.20;;;21.60;68.50;;;;;;5110540;28;20039;-48
2021/06/27 09:36:07;;;;;;;2.80;2.50;;;21.60;68.50;;;;;;5108412;28;20039;-49
2021/06/27 09:38:45;;;;;;;2.50;2.22;;;21.70;68.50;;;;;;5104695;28;20047;-45
2021/06/27 09:41:32;;;;;;;2.45;2.15;;;21.70;68.40;;;;;;5108434;28;20066;-47
2021/06/27 09:44:05;;;;;;;2.75;2.45;;;21.70;68.30;;;;;;5109712;28;20048;-50
2021/06/27 09:46:41;;;;;;;2.25;2.00;;;21.70;68.30;;;;;;5108833;28;20063;-45
2021/06/27 09:49:12;;;;;;;2.88;2.55;;;21.70;68.30;;;;;;5111634;28;20161;-49
2021/06/27 09:51:43;;;;;;;3.03;2.33;;;21.70;68.90;;;;;;5110408;28;20046;-48
2021/06/27 09:54:16;;;;;;;3.38;2.45;;;21.80;68.30;;;;;;5111335;28;20059;-46
2021/06/27 09:56:42;;;;;;;2.80;2.40;;;21.80;68.20;;;;;;5111363;28;20040;-46
2021/06/27 09:59:22;;;;;;;2.58;2.20;;;21.80;68.20;;;;;;5109863;28;20496;-46
2021/06/27 10:01:48;;;;;;;3.15;2.58;;;21.80;68.10;;;;;;5111250;28;20044;-48
2021/06/27 10:04:31;;;;;;;2.63;2.25;;;21.80;68.10;;;;;;5108981;28;20054;-46
2021/06/27 10:06:59;;;;;;;3.13;2.47;;;21.80;68.00;;;;;;5109075;28;20417;-46
2021/06/27 10:09:32;;;;;;;2.55;2.35;;;21.90;68.10;;;;;;5108959;28;20089;-45
2021/06/27 10:12:06;;;;;;;2.63;2.33;;;21.90;68.00;;;;;;5103527;28;20455;-46
2021/06/27 10:14:35;;;;;;;2.70;2.30;;;21.90;68.00;;;;;;5108696;28;20505;-46
2021/06/27 10:17:04;;;;;;;3.40;2.45;;;21.90;68.00;;;;;;5111392;28;20510;-46
2021/06/27 10:19:30;;;;;;;2.60;2.40;;;21.90;68.00;;;;;;5111711;28;20085;-45
2021/06/27 10:21:57;;;;;;;3.83;2.58;;;21.90;67.90;;;;;;5110828;28;20085;-46
2021/06/27 10:24:24;;;;;;;2.88;2.42;;;21.90;67.90;;;;;;5110674;28;20437;-46
2021/06/27 10:26:50;;;;;;;2.67;2.28;;;21.90;67.90;;;;;;5111781;28;20085;-44
2021/06/27 10:29:19;;;;;;;3.20;2.63;;;22.00;67.90;;;;;;5111593;28;20040;-46
2021/06/27 10:31:46;;;;;;;2.53;2.33;;;22.00;67.90;;;;;;5111798;28;20040;-46
2021/06/27 10:34:12;;;;;;;3.58;2.83;;;22.00;67.80;;;;;;5109929;28;20065;-48
2021/06/27 10:36:42;;;;;;;3.08;2.50;;;22.00;67.80;;;;;;5106866;28;20466;-47
2021/06/27 10:39:11;;;;;;;3.17;2.50;;;22.00;67.70;;;;;;5110425;28;20058;-49
2021/06/27 10:41:50;;;;;;;2.92;2.63;;;22.00;67.70;;;;;;5111945;28;20422;-51
2021/06/27 10:44:18;;;;;;;3.10;2.55;;;22.10;67.70;;;;;;5106008;28;20040;-48
2021/06/27 10:46:48;;;;;;;3.35;2.63;;;22.10;67.70;;;;;;5110031;28;20044;-47
2021/06/27 10:49:34;;;;;;;3.05;2.75;;;22.10;67.70;;;;;;5107996;28;20040;-48
2021/06/27 10:52:07;;;;;;;2.97;2.67;;;22.10;67.60;;;;;;5108891;28;20050;-46
2021/06/27 10:54:33;;;;;;;3.85;2.65;;;22.10;67.60;;;;;;5111071;28;20074;-44
2021/06/27 10:57:09;;;;;;;2.80;2.60;;;22.10;67.50;;;;;;5112967;28;20123;-45
2021/06/27 10:59:55;;;;;;;3.67;2.85;;;22.10;67.50;;;;;;5111333;28;20082;-44
2021/06/27 11:02:36;;;;;;;3.35;2.85;;;22.10;67.50;;;;;;5112968;28;20063;-45
2021/06/27 11:05:33;;;;;;;3.45;2.67;;;22.20;67.50;;;;;;5107411;28;20047;-42
2021/06/27 11:08:00;;;;;;;2.78;2.47;;;22.20;67.40;;;;;;5098884;28;20048;-45
2021/06/27 11:10:28;;;;;;;2.88;2.58;;;22.20;67.80;;;;;;5108670;28;20050;-43
2021/06/27 11:12:56;;;;;;;3.10;2.78;;;22.20;67.40;;;;;;5111220;28;20116;-44
2021/06/27 11:15:23;;;;;;;4.05;3.22;;;22.20;67.40;;;;;;5114203;28;20084;-45
2021/06/27 11:17:53;;;;;;;3.58;2.90;;;22.30;67.50;;;;;;5114485;28;20039;-45
2021/06/27 11:20:20;;;;;;;3.03;2.58;;;22.30;67.40;;;;;;5113292;28;20044;-44
2021/06/27 11:22:48;;;;;;;3.58;2.70;;;22.30;67.40;;;;;;5114647;28;20420;-45
2021/06/27 11:25:39;;;;;;;3.20;2.83;;;22.30;67.30;;;;;;5111595;28;20043;-43
2021/06/27 11:28:20;;;;;;;3.42;2.83;;;22.20;67.20;;;;;;5112872;28;20047;-42
2021/06/27 11:30:53;;;;;;;3.35;2.80;;;22.30;67.30;;;;;;5112658;28;20107;-45
2021/06/27 11:33:26;;;;;;;3.10;2.58;;;22.30;67.20;;;;;;5112163;28;20043;-44
2021/06/27 11:35:54;;;;;;;3.30;2.97;;;22.30;67.20;;;;;;5113323;28;20529;-41
2021/06/27 11:38:39;;;;;;;3.55;2.97;;;22.30;67.20;;;;;;5114014;28;20404;-41
2021/06/27 11:41:17;;;;;;;4.47;3.38;;;22.40;67.20;;;;;;5114427;28;20245;-46
2021/06/27 11:44:00;;;;;;;6.03;4.38;;;22.40;67.30;;;;;;5114093;28;20040;-44
2021/06/27 11:46:46;;;;;;;7.68;5.22;;;22.40;67.30;;;;;;5115232;28;20048;-45
2021/06/27 11:49:19;;;;;;;6.13;5.22;;;22.40;67.20;;;;;;5108460;28;20586;-49
2021/06/27 11:51:50;;;;;;;7.00;5.90;;;22.40;67.30;;;;;;5113700;28;20070;-42
2021/06/27 11:54:19;;;;;;;5.80;4.85;;;22.40;67.20;;;;;;5114836;28;20050;-43
2021/06/27 11:57:05;;;;;;;5.80;5.13;;;22.40;67.30;;;;;;5115072;28;20047;-44
2021/06/27 11:59:36;;;;;;;5.70;4.95;;;22.40;67.20;;;;;;5112940;28;20047;-47
2021/06/27 12:02:13;;;;;;;8.13;4.97;;;22.50;67.30;;;;;;5113352;28;20084;-44
2021/06/27 12:04:40;;;;;;;6.65;5.25;;;22.50;67.30;;;;;;5092388;28;20113;-48
2021/06/27 12:07:36;;;;;;;9.38;6.50;;;22.50;67.30;;;;;;5093841;28;20048;-46
2021/06/27 12:10:04;;;;;;;7.30;6.25;;;22.50;67.30;;;;;;5088812;28;20165;-46
2021/06/27 12:12:45;;;;;;;7.60;6.03;;;22.60;67.30;;;;;;5092234;28;20114;-44
2021/06/27 12:15:17;;;;;;;11.10;6.53;;;22.60;67.20;;;;;;5089354;28;20542;-47
2021/06/27 12:18:02;;;;;;;7.10;5.90;;;22.60;67.10;;;;;;5088344;28;20048;-43
2021/06/27 12:20:31;;;;;;;5.50;4.82;;;22.70;67.00;;;;;;5086592;28;20040;-44
2021/06/27 12:22:59;;;;;;;6.88;5.32;;;22.70;66.90;;;;;;5088997;28;20460;-42
2021/06/27 12:25:26;;;;;;;5.75;5.15;;;22.70;66.80;;;;;;5089544;28;20059;-44
2021/06/27 12:27:54;;;;;;;5.18;4.68;;;22.70;66.90;;;;;;5086073;28;20044;-44
2021/06/27 12:30:40;;;;;;;5.70;5.10;;;22.80;66.90;;;;;;5089369;28;20479;-39
2021/06/27 12:33:08;;;;;;;4.88;4.32;;;22.80;66.70;;;;;;5087369;28;20059;-45
2021/06/27 12:35:36;;;;;;;4.85;4.35;;;22.80;66.70;;;;;;5086109;28;20665;-37
2021/06/27 12:38:03;;;;;;;5.57;4.63;;;22.80;66.70;;;;;;5089184;28;20040;-42
2021/06/27 12:40:30;;;;;;;5.50;4.90;;;22.80;66.60;;;;;;5089452;28;20055;-42
2021/06/27 12:42:56;;;;;;;6.93;4.50;;;22.80;66.60;;;;;;5087260;28;20071;-41
2021/06/27 12:45:23;;;;;;;5.53;4.43;;;22.80;66.60;;;;;;5088816;28;20151;-39
2021/06/27 12:47:50;;;;;;;5.25;4.75;;;22.80;66.60;;;;;;5089357;28;20052;-41
2021/06/27 12:50:16;;;;;;;4.90;4.38;;;22.80;66.60;;;;;;5088304;28;20448;-40
2021/06/27 12:52:43;;;;;;;4.53;4.00;;;22.80;66.50;;;;;;5088994;28;20067;-42
2021/06/27 12:55:15;;;;;;;4.78;3.90;;;22.80;66.50;;;;;;5086880;28;20060;-45